Flight Track Log - Related Links

Times and Time Zones

All times are in EDT time to prevent confusion due to time zone crossing. See the LYM613 flight status page for this flight to view local times or setup timezone preferences in your user account.

Time Position Orientation Groundspeed Altitude Reporting Facility
EDT Latitude Longitude Course Direction KTS MPH feet Rate Location/Type
Wed 04:50:05 PM 40.7800 -112.0194 276° West 211 243 8,100  Level Salt Lake Center
Wed 04:51:08 PM 40.8264 -112.0853 313° West 252 290 10,000 1,344 Climbing Salt Lake Center
Wed 04:52:10 PM 40.8794 -112.1644 312° West 286 329 10,900 1,366 Climbing Salt Lake Center
Wed 04:53:11 PM 40.9564 -112.2136 334° Northwest 338 389 12,800 2,195 Climbing Salt Lake Center
Wed 04:54:13 PM 41.0036 -112.1083 59° Northeast 363 418 15,400 2,516 Climbing Salt Lake Center
Wed 04:55:15 PM 40.9919 -111.9514 96° East 361 415 18,000 2,390 Climbing Salt Lake Center
Wed 04:56:16 PM 40.9833 -111.8186 95° East 380 437 20,300 2,195 Climbing Salt Lake Center
Wed 04:57:18 PM 40.9711 -111.6856 97° East 377 434 22,500 2,129 Climbing Salt Lake Center
Wed 04:58:20 PM 40.9600 -111.5489 96° East 377 434 24,700 2,000 Climbing Salt Lake Center
Wed 04:59:21 PM 40.9481 -111.4086 96° East 386 444 26,600 2,098 Climbing Salt Lake Center
Wed 05:00:23 PM 40.9333 -111.2414 97° East 381 438 29,000 1,887 Climbing Salt Lake Center
Wed 05:01:25 PM 40.9206 -111.1003 97° East 387 445 30,500 976 Climbing Salt Lake Center
Wed 05:02:26 PM 40.9069 -110.9528 97° East 403 464 31,000 244 Climbing Salt Lake Center
Wed 05:03:28 PM 40.8931 -110.7958 97° East 428 493 31,000  Level Salt Lake Center
Wed 05:04:30 PM 40.8778 -110.6375 97° East 434 499 31,000  Level Salt Lake Center
Wed 05:05:31 PM 40.8611 -110.4550 97° East 439 505 31,000  Level Salt Lake Center
Wed 05:06:33 PM 40.8469 -110.3025 97° East 439 505 31,000  Level Salt Lake Center
Wed 05:07:35 PM 40.8303 -110.1322 97° East 440 506 31,000  Level Salt Lake Center
Wed 05:08:36 PM 40.8156 -109.9803 97° East 438 504 31,000  Level Salt Lake Center
Wed 05:09:38 PM 40.7975 -109.8025 98° East 438 504 31,000  Level Salt Lake Center
Wed 05:10:40 PM 40.7819 -109.6483 98° East 440 506 31,000  Level Salt Lake Center
Wed 05:11:41 PM 40.7636 -109.4686 98° East 441 507 31,000  Level Salt Lake Center
Wed 05:12:43 PM 40.7478 -109.3169 98° East 438 504 31,000  Level Salt Lake Center
Wed 05:13:45 PM 40.7311 -109.1603 98° East 441 507 31,000  Level Salt Lake Center
Wed 05:14:29 PM 40.7189 -109.0292 97° East 446 513 31,000  Level Denver Center
Wed 05:15:31 PM 40.7017 -108.8756 98° East 444 511 31,000  Level Denver Center
Wed 05:15:48 PM 40.6964 -108.8269 98° East 444 511 31,000  Level Salt Lake Center
Wed 05:16:50 PM 40.6825 -108.6472 96° East 445 512 31,000  Level Salt Lake Center
Wed 05:17:35 PM 40.6739 -108.5411 96° East 442 509 31,000  Level Denver Center
Wed 05:18:37 PM 40.6578 -108.3606 97° East 444 511 31,000  Level Denver Center
Wed 05:19:39 PM 40.6436 -108.2061 97° East 443 510 31,000  Level Denver Center
Wed 05:20:41 PM 40.6275 -108.0258 97° East 442 509 31,000  Level Denver Center
Wed 05:21:43 PM 40.6125 -107.8719 97° East 442 509 31,000  Level Denver Center
Wed 05:22:45 PM 40.5981 -107.7181 97° East 442 509 31,000  Level Denver Center
Wed 05:23:47 PM 40.5808 -107.5378 97° East 443 510 31,000  Level Denver Center
Wed 05:24:49 PM 40.5656 -107.3844 97° East 442 509 31,000  Level Denver Center
Wed 05:25:51 PM 40.5486 -107.2139 97° East 441 507 31,000  Level Denver Center
Wed 05:26:53 PM 40.5322 -107.0486 97° East 442 509 31,000  Level Denver Center
Wed 05:27:55 PM 40.5156 -106.8892 98° East 441 507 31,000  Level Denver Center
Wed 05:28:57 PM 40.4989 -106.7289 98° East 441 507 31,000  Level Denver Center
Wed 05:29:59 PM 40.4819 -106.5689 98° East 440 506 31,000  Level Denver Center
Wed 05:31:01 PM 40.4642 -106.3931 98° East 437 503 31,000  Level Denver Center
Wed 05:32:03 PM 40.4433 -106.2136 99° East 444 511 31,000 -48 Level Denver Center
Wed 05:33:05 PM 40.4267 -106.0475 97° East 443 510 30,900 -968 Descending Denver Center
Wed 05:34:07 PM 40.4097 -105.8917 98° East 435 501 29,000 -2,081 Descending Denver Center
Wed 05:35:09 PM 40.3919 -105.7461 99° East 406 467 26,600 -2,226 Descending Denver Center
Wed 05:36:11 PM 40.3750 -105.5936 98° East 421 484 24,400 -2,274 Descending Denver Center
Wed 05:37:13 PM 40.3417 -105.4342 105° East 417 480 21,900 -2,226 Descending Denver Center
Wed 05:38:15 PM 40.2817 -105.3178 124° Southeast 390 449 19,800 -2,032 Descending Denver Center
Wed 05:39:17 PM 40.2131 -105.2117 130° Southeast 357 411 17,700 -2,468 Descending Denver Center
Wed 05:40:19 PM 40.1506 -105.1153 130° Southeast 350 403 14,700 -3,097 Descending Denver Center
Wed 05:41:21 PM 40.0881 -105.0164 130° Southeast 326 375 11,300 -2,226 Descending Denver Center
Wed 05:42:23 PM 40.0322 -104.9428 135° Southeast 282 325 10,100 -871 Descending Denver Center
Wed 05:43:25 PM 39.9614 -104.9064 159° South 274 315 9,500 -1,016 Descending Denver Center
Wed 05:44:27 PM 39.8925 -104.8719 159° South 248 285 8,000 -677 Descending Denver Center
Wed 05:45:29 PM 39.8242 -104.8650 176° South 250 288 8,100 -435 Climbing Denver Center
Wed 05:46:31 PM 39.7522 -104.8608 177° South 241 277 7,100 -484 Descending Denver Center
Wed 05:47:33 PM 39.6917 -104.8572 177° South 222 255 7,100 -48 Level Denver Center
Wed 05:48:35 PM 39.6389 -104.8558 179° South 174 200 7,000 -435 Descending Denver Center
Wed 05:49:37 PM 39.5989 -104.8525 176° South 147 169 6,200 -532 Descending Denver Center
Wed 05:50:39 PM 39.5731 -104.8506 177° South 122 140 5,900 -290 Descending Denver Center
Wed 05:52:00 PM 39.5701 -104.8493 173° South  Level Estimated
Wed 05:59:00 PM 39.5701 -104.8493 173° South  Level Estimated
Wed 06:00:00 PM 39.5701 -104.8493 173° South  Level Estimated

Login

Don't have an account? Register now (free) for customized features, flight alerts, and more!